Etusivu
METAR-TAF:

METAR-TAF

Lentoasemat :

Irkutskin lentoasema

Irkutsk, Venäjä

Leveyspiiri: 52-16N, Pituuspiiri: 104-19E, korkeus merenpinnasta: 513 m

Tämänhetkinen sää

Tämä raportti tehtiin 48 minuuttia sitten, kello 09.30 UTC
Tuuli 10 kn lännestä/luoteesta
Lämpötila 18°C
Kosteus 59%
Ilmanpaine 1015 hPa
Näkyvyys 10 km tai enemmän
Hajonneita pilviä 4000 ft:n korkeudessa, Cumulonimbus.

METAR: UIII 210930Z 29005MPS 9999 BKN040CB 18/10 Q1015 R12/CLRD60 NOSIG RMK QFE719/0959

Aika: 18:18 (10:18 UTC)

Sääennuste

Tämä raportti tehtiin 2 tuntia ja 18 minuuttia sitten, kello 08.00 UTC
Ennuste voimassa 21. päivästä klo 09 UTC - 22. päivään klo 09 UTC
Tuuli 10 kn pohjoisen/luoteesta puuskistuen 19 kn:hen
Näkyvyys 10 km tai enemmän
Hajonneita pilviä 3000 ft:n korkeudessa, Cumulonimbus.
Ajoittain
21. päivästä klo 09 UTC - 21. päivään klo 12 UTC
Tuuli 23 kn eri suunnista

TAF: UIII 210800Z 2109/2209 34005G10MPS 9999 BKN030CB TEMPO 2109/2112 VRB12MPS

Säähavainnot ja -ennusteet yli 4000 lentoasemalta (METAR- ja TAF-raportit).

Käytössä olevat sääasemat on merkitty karttaan keltaisilla ja punaisilla pisteillä.

Aseta hiiri pisteen päälle nähdäksesi sääaseman nimen.

Klikkaa sitten nähdäksesi säähavainnot ja -ennusteet.

Kartan vaihtaminen: klikkaa mustalla rastilla varustettuja vihreitä pisteitä, niin voit zoomata sisään; viivalla varustettua vihreää pistettä, niin voit zoomata ulos tai vihreitä nuolia, niin pääset viereisille kartoille.


METAR-TAF: